createdAt,value
2022-10-18T00:01:07.929Z,12.20
2022-10-18T00:03:19.201Z,10.50
2022-10-18T00:05:25.388Z,10.90
2022-10-18T00:07:31.886Z,12.10
2022-10-18T00:09:38.189Z,11.30
2022-10-18T00:11:44.448Z,11.30
2022-10-18T00:13:50.619Z,10.80
2022-10-18T00:16:00.201Z,11.10
2022-10-18T00:18:06.830Z,11.50
2022-10-18T00:20:13.837Z,12.40
2022-10-18T00:22:20.045Z,11.40
2022-10-18T00:24:26.339Z,11.50
2022-10-18T00:26:33.292Z,11.90
2022-10-18T00:28:40.707Z,11.80
2022-10-18T00:30:47.238Z,12.70
2022-10-18T00:32:54.047Z,13.00
2022-10-18T00:35:00.488Z,13.50
2022-10-18T00:37:06.976Z,12.80
2022-10-18T00:39:18.454Z,12.40
2022-10-18T00:41:28.544Z,14.20
2022-10-18T00:43:51.860Z,14.80
2022-10-18T00:45:58.190Z,16.00
2022-10-18T00:48:06.842Z,15.90
2022-10-18T00:50:13.966Z,17.10
2022-10-18T00:52:43.569Z,17.40
2022-10-18T00:54:51.522Z,16.50
2022-10-18T00:56:58.614Z,15.50
2022-10-18T00:59:05.052Z,16.80
2022-10-18T01:01:11.199Z,16.20
2022-10-18T01:03:17.563Z,16.80
2022-10-18T01:05:23.634Z,17.30
2022-10-18T01:07:52.092Z,16.60
2022-10-18T01:10:16.516Z,18.00
2022-10-18T01:12:26.243Z,17.30
2022-10-18T01:14:56.583Z,19.30
2022-10-18T01:17:06.074Z,18.60
2022-10-18T01:19:20.769Z,17.90
2022-10-18T01:21:55.097Z,17.90
2022-10-18T01:24:16.497Z,18.30
2022-10-18T01:26:25.197Z,18.30
2022-10-18T01:28:58.985Z,19.70
2022-10-18T01:31:13.798Z,19.90
2022-10-18T01:33:27.835Z,18.90
2022-10-18T01:35:37.861Z,18.20
2022-10-18T01:37:47.917Z,19.30
2022-10-18T01:39:58.173Z,18.80
2022-10-18T01:42:10.524Z,18.70
2022-10-18T01:44:22.341Z,20.00
2022-10-18T01:46:31.526Z,19.20
2022-10-18T01:48:39.475Z,19.10
2022-10-18T01:50:46.284Z,19.30
2022-10-18T01:52:53.314Z,21.20
2022-10-18T01:55:02.226Z,21.20
2022-10-18T01:57:34.997Z,18.50
2022-10-18T02:00:03.543Z,19.90
2022-10-18T02:02:55.042Z,19.80
2022-10-18T02:05:21.265Z,18.30
2022-10-18T02:07:51.896Z,19.90
2022-10-18T02:10:19.562Z,17.70
2022-10-18T02:12:27.328Z,18.60
2022-10-18T02:14:34.888Z,18.20
2022-10-18T02:16:46.885Z,19.20
2022-10-18T02:19:12.044Z,15.70
2022-10-18T02:21:21.228Z,18.70
2022-10-18T02:23:27.975Z,19.20
2022-10-18T02:25:36.503Z,17.30
2022-10-18T02:27:42.867Z,18.20
2022-10-18T02:29:50.542Z,18.30
2022-10-18T02:32:13.037Z,18.10
2022-10-18T02:34:30.518Z,19.70
2022-10-18T02:36:48.251Z,19.10
2022-10-18T02:39:04.233Z,19.60
2022-10-18T02:41:10.699Z,17.10
2022-10-18T02:43:17.089Z,18.50
2022-10-18T02:45:24.037Z,17.10
2022-10-18T02:47:30.908Z,18.00
2022-10-18T02:49:37.550Z,18.10
2022-10-18T02:51:43.916Z,16.60
2022-10-18T02:53:50.435Z,17.90
2022-10-18T02:55:57.179Z,19.90
2022-10-18T02:58:03.581Z,19.20
2022-10-18T03:00:11.155Z,19.90
2022-10-18T03:02:17.460Z,18.40
2022-10-18T03:04:24.103Z,18.40
2022-10-18T03:06:30.202Z,18.80
2022-10-18T03:08:37.801Z,16.80
2022-10-18T03:10:46.857Z,17.70
2022-10-18T03:12:52.963Z,17.70
2022-10-18T03:14:58.942Z,18.20
2022-10-18T03:17:05.222Z,19.60
2022-10-18T03:19:11.533Z,18.40
2022-10-18T03:21:18.097Z,19.30
2022-10-18T03:23:24.488Z,18.90
2022-10-18T03:25:30.618Z,19.20
2022-10-18T03:27:36.710Z,20.00
2022-10-18T03:29:42.885Z,20.80
2022-10-18T03:31:49.748Z,20.40
2022-10-18T03:33:55.710Z,19.60
2022-10-18T03:36:02.052Z,20.60
2022-10-18T03:38:08.125Z,20.30
2022-10-18T03:40:14.109Z,21.20
2022-10-18T03:42:20.712Z,22.70
2022-10-18T03:44:27.248Z,20.60
2022-10-18T03:46:33.431Z,20.70
2022-10-18T03:48:39.697Z,20.50
2022-10-18T03:50:45.648Z,22.20
2022-10-18T03:52:51.837Z,21.70
2022-10-18T03:54:57.935Z,22.00
2022-10-18T03:57:04.073Z,21.60
2022-10-18T03:59:10.167Z,23.50
2022-10-18T04:01:16.659Z,20.70
2022-10-18T04:03:25.157Z,21.30
2022-10-18T04:05:32.464Z,21.00
2022-10-18T04:07:39.062Z,21.20
2022-10-18T04:09:45.495Z,22.20
2022-10-18T04:11:52.491Z,21.70
2022-10-18T04:13:58.979Z,22.10
2022-10-18T04:16:05.163Z,23.30
2022-10-18T04:18:11.509Z,22.40
2022-10-18T04:20:18.079Z,22.40
2022-10-18T04:22:24.512Z,21.30
2022-10-18T04:24:30.531Z,21.40
2022-10-18T04:26:36.667Z,21.70
2022-10-18T04:28:43.495Z,21.30
2022-10-18T04:30:54.572Z,22.50
2022-10-18T04:33:01.141Z,22.90
2022-10-18T04:35:08.875Z,22.90
2022-10-18T04:37:14.983Z,21.30
2022-10-18T04:39:21.430Z,22.80
2022-10-18T04:41:27.662Z,20.90
2022-10-18T04:43:33.773Z,22.50
2022-10-18T04:45:39.856Z,22.30
2022-10-18T04:47:46.360Z,20.80
2022-10-18T04:49:52.518Z,21.00
2022-10-18T04:51:59.068Z,21.50
2022-10-18T04:54:05.234Z,22.40
2022-10-18T04:56:11.891Z,21.00
2022-10-18T04:58:19.422Z,21.70
2022-10-18T05:00:25.586Z,21.10
2022-10-18T05:02:32.125Z,22.90
2022-10-18T05:04:38.400Z,22.50
2022-10-18T05:06:45.078Z,22.00
2022-10-18T05:08:51.572Z,23.20
2022-10-18T05:10:57.872Z,22.30
2022-10-18T05:13:05.207Z,20.40
2022-10-18T05:15:11.768Z,22.60
2022-10-18T05:17:17.909Z,23.40
2022-10-18T05:19:24.203Z,22.00
2022-10-18T05:21:30.192Z,23.20
2022-10-18T05:23:36.420Z,22.10
2022-10-18T05:25:43.897Z,22.70
2022-10-18T05:27:50.544Z,22.00
2022-10-18T05:29:58.943Z,23.90
2022-10-18T05:32:07.716Z,24.00
2022-10-18T05:34:14.842Z,22.10
2022-10-18T05:36:21.303Z,22.10
2022-10-18T05:38:27.815Z,21.00
2022-10-18T05:40:40.005Z,22.10
2022-10-18T05:42:47.248Z,19.40
2022-10-18T05:44:53.944Z,22.10
2022-10-18T05:46:59.964Z,21.00
2022-10-18T05:49:06.620Z,21.10
2022-10-18T05:51:12.897Z,22.20
2022-10-18T05:53:35.750Z,20.80
2022-10-18T05:55:43.182Z,21.30
2022-10-18T05:57:52.469Z,22.00
2022-10-18T05:59:59.323Z,20.80
2022-10-18T06:02:06.030Z,22.20
2022-10-18T06:04:12.346Z,21.50
2022-10-18T06:06:18.906Z,21.80
2022-10-18T06:08:25.502Z,20.80
2022-10-18T06:10:32.077Z,19.00
2022-10-18T06:12:38.153Z,19.80
2022-10-18T06:14:45.480Z,19.00
2022-10-18T06:16:51.930Z,19.80
2022-10-18T06:19:00.935Z,19.40
2022-10-18T06:21:07.841Z,16.30
2022-10-18T06:23:13.960Z,17.50
2022-10-18T06:25:19.888Z,17.80
2022-10-18T06:27:25.970Z,16.70
2022-10-18T06:29:32.549Z,19.40
2022-10-18T06:31:38.686Z,18.90
2022-10-18T06:33:46.719Z,17.10
2022-10-18T06:35:58.087Z,17.50
2022-10-18T06:38:04.320Z,19.40
2022-10-18T06:40:11.391Z,16.50
2022-10-18T06:42:19.175Z,17.00
2022-10-18T06:44:28.108Z,17.10
2022-10-18T06:46:35.008Z,18.00
2022-10-18T06:48:42.433Z,16.50
2022-10-18T06:51:03.199Z,17.90
2022-10-18T06:53:10.089Z,19.90
2022-10-18T06:55:16.509Z,19.80
2022-10-18T06:57:23.595Z,18.40
2022-10-18T06:59:32.726Z,18.30
2022-10-18T07:01:41.005Z,18.60
2022-10-18T07:03:49.027Z,17.20
2022-10-18T07:05:55.287Z,18.60
2022-10-18T07:08:01.441Z,19.20
2022-10-18T07:10:11.185Z,18.60
2022-10-18T07:12:19.935Z,19.80
2022-10-18T07:14:29.019Z,18.70
2022-10-18T07:16:36.296Z,19.70
2022-10-18T07:18:44.988Z,20.00
2022-10-18T07:20:50.961Z,19.20
2022-10-18T07:23:00.655Z,19.80
2022-10-18T07:25:08.181Z,20.50
2022-10-18T07:27:15.126Z,21.50
2022-10-18T07:29:21.892Z,22.40
2022-10-18T07:31:28.960Z,21.60
2022-10-18T07:33:36.630Z,20.10
2022-10-18T07:35:43.009Z,21.40
2022-10-18T07:37:49.700Z,22.20
2022-10-18T07:39:56.386Z,20.70
2022-10-18T07:42:02.436Z,23.90
2022-10-18T07:44:09.415Z,23.20
2022-10-18T07:46:16.641Z,20.20
2022-10-18T07:48:23.629Z,20.50
2022-10-18T07:50:29.716Z,20.70
2022-10-18T07:52:35.880Z,21.30
2022-10-18T07:54:42.177Z,21.50
2022-10-18T07:56:48.564Z,21.10
2022-10-18T07:58:56.850Z,22.20
2022-10-18T08:01:08.385Z,20.10
2022-10-18T08:03:14.784Z,19.40
2022-10-18T08:05:21.055Z,20.40
2022-10-18T08:07:27.437Z,21.10
2022-10-18T08:09:34.046Z,22.00
2022-10-18T08:11:40.690Z,22.00
2022-10-18T08:13:47.008Z,21.90
2022-10-18T08:16:00.763Z,21.50
2022-10-18T08:18:07.089Z,20.20
2022-10-18T08:20:29.872Z,22.00
2022-10-18T08:22:36.799Z,20.20
2022-10-18T08:24:43.032Z,21.30
2022-10-18T08:26:51.519Z,22.10
2022-10-18T08:29:21.155Z,22.20
2022-10-18T08:31:24.165Z,21.50
2022-10-18T08:33:30.437Z,22.60
2022-10-18T08:35:37.170Z,23.40
2022-10-18T08:37:43.708Z,23.90
2022-10-18T08:39:49.991Z,23.60
2022-10-18T08:42:23.721Z,23.10
2022-10-18T08:44:33.197Z,22.60
2022-10-18T08:46:45.686Z,24.00
2022-10-18T08:48:56.506Z,24.80
2022-10-18T08:51:05.460Z,23.20
2022-10-18T08:53:25.980Z,23.40
2022-10-18T08:55:48.312Z,21.80
2022-10-18T08:57:54.733Z,24.60
2022-10-18T09:00:01.003Z,22.80
2022-10-18T09:02:28.356Z,24.40
2022-10-18T09:04:59.125Z,23.00
2022-10-18T09:07:40.067Z,24.70
2022-10-18T09:09:46.184Z,25.30
2022-10-18T09:12:04.094Z,25.50
2022-10-18T09:14:19.403Z,25.70
2022-10-18T09:16:47.088Z,26.40
2022-10-18T09:19:22.795Z,24.90
2022-10-18T09:21:59.923Z,26.10
2022-10-18T09:24:22.196Z,27.60
2022-10-18T09:29:12.080Z,29.50
2022-10-18T09:31:25.795Z,31.30
2022-10-18T09:33:52.775Z,32.70
2022-10-18T09:36:03.269Z,33.30
2022-10-18T09:38:14.487Z,33.40
2022-10-18T09:40:45.043Z,32.90
2022-10-18T09:43:01.709Z,33.80
2022-10-18T09:45:16.971Z,28.90
2022-10-18T09:48:09.693Z,34.60
2022-10-18T09:50:31.608Z,36.80
2022-10-18T09:52:50.823Z,34.90
2022-10-18T09:55:04.810Z,39.90
2022-10-18T09:57:29.396Z,40.40
2022-10-18T09:59:48.431Z,40.60
2022-10-18T10:01:54.774Z,43.30
2022-10-18T10:04:00.942Z,43.30
2022-10-18T10:06:18.044Z,44.90
2022-10-18T10:08:36.243Z,48.00
2022-10-18T10:10:49.136Z,50.50
2022-10-18T10:13:08.632Z,54.40
2022-10-18T10:15:29.688Z,56.10
2022-10-18T10:17:39.965Z,65.10
2022-10-18T10:20:06.409Z,66.00
2022-10-18T10:22:15.791Z,67.50
2022-10-18T10:24:46.302Z,74.30
2022-10-18T10:27:00.102Z,81.70
2022-10-18T10:29:45.084Z,84.20
2022-10-18T10:32:04.753Z,93.40
2022-10-18T10:34:16.706Z,94.80
2022-10-18T10:36:23.236Z,97.40
2022-10-18T10:38:31.694Z,99.10
2022-10-18T10:40:51.479Z,108.60
2022-10-18T10:43:18.454Z,110.60
2022-10-18T10:45:56.544Z,116.00
2022-10-18T10:48:15.634Z,109.50
2022-10-18T10:50:30.127Z,112.20
2022-10-18T10:52:36.716Z,109.30
2022-10-18T10:54:51.345Z,103.20
2022-10-18T10:57:02.710Z,99.30
2022-10-18T10:59:10.652Z,94.10
2022-10-18T11:01:32.856Z,90.90
2022-10-18T11:05:47.508Z,80.60
2022-10-18T11:08:06.831Z,84.40
2022-10-18T11:10:13.401Z,82.60
2022-10-18T11:12:26.223Z,77.70
2022-10-18T11:14:40.429Z,81.10
2022-10-18T11:17:10.626Z,83.00
2022-10-18T11:19:40.486Z,80.80
2022-10-18T11:21:46.971Z,81.20
2022-10-18T11:23:54.123Z,79.20
2022-10-18T11:26:15.330Z,86.60
2022-10-18T11:28:47.675Z,82.40
2022-10-18T11:31:16.283Z,83.50
2022-10-18T11:34:08.133Z,75.90
2022-10-18T11:36:50.397Z,78.10
2022-10-18T11:39:51.980Z,75.70
2022-10-18T11:42:04.481Z,69.80
2022-10-18T11:44:41.714Z,69.50
2022-10-18T11:47:07.122Z,66.30
2022-10-18T11:49:50.212Z,67.30
2022-10-18T11:52:30.947Z,66.60
2022-10-18T11:55:07.897Z,66.00
2022-10-18T11:57:25.836Z,61.00
2022-10-18T11:59:57.834Z,57.20
2022-10-18T12:02:18.668Z,61.40
2022-10-18T12:04:35.289Z,58.50
2022-10-18T12:06:44.561Z,59.40
2022-10-18T12:09:05.085Z,56.50
2022-10-18T12:11:23.901Z,59.50
2022-10-18T12:13:36.411Z,60.60
2022-10-18T12:15:42.816Z,57.60
2022-10-18T12:17:54.578Z,60.20
2022-10-18T12:20:09.343Z,58.20
2022-10-18T12:22:36.245Z,61.50
2022-10-18T12:24:43.947Z,58.00
2022-10-18T12:26:53.226Z,58.20
2022-10-18T12:28:59.699Z,56.30
2022-10-18T12:31:15.486Z,62.70
2022-10-18T12:33:28.840Z,57.40
2022-10-18T12:36:02.144Z,53.90
2022-10-18T12:38:39.376Z,54.60
2022-10-18T12:40:50.564Z,57.70
2022-10-18T12:42:57.901Z,59.50
2022-10-18T12:45:21.818Z,61.50
2022-10-18T12:47:29.605Z,60.60
2022-10-18T12:49:41.350Z,59.80
2022-10-18T12:51:56.765Z,58.80
2022-10-18T12:54:02.736Z,60.00
2022-10-18T12:56:42.895Z,57.50
2022-10-18T12:58:49.085Z,56.50
2022-10-18T13:00:57.547Z,56.40
2022-10-18T13:03:21.757Z,54.70
2022-10-18T13:05:54.537Z,55.60
2022-10-18T13:08:30.272Z,50.90
2022-10-18T13:10:39.124Z,52.30
2022-10-18T13:13:39.167Z,52.20
2022-10-18T13:15:50.688Z,50.40
2022-10-18T13:17:56.618Z,53.40
2022-10-18T13:20:26.654Z,52.00
2022-10-18T13:23:03.026Z,54.40
2022-10-18T13:26:06.718Z,52.50
2022-10-18T13:28:43.829Z,53.00
2022-10-18T13:31:11.785Z,49.70
2022-10-18T13:33:31.961Z,53.40
2022-10-18T13:35:53.321Z,54.00
2022-10-18T13:38:21.738Z,53.30
2022-10-18T13:40:27.927Z,52.20
2022-10-18T13:42:35.110Z,54.70
2022-10-18T13:44:43.028Z,53.80
2022-10-18T13:46:49.365Z,54.30
2022-10-18T13:49:01.806Z,57.60
2022-10-18T13:51:46.381Z,50.70
2022-10-18T13:54:30.587Z,55.50
2022-10-18T13:56:54.489Z,52.00
2022-10-18T13:59:20.102Z,54.70
2022-10-18T14:01:42.659Z,56.10
2022-10-18T14:04:01.110Z,54.70
2022-10-18T14:06:26.676Z,53.80
2022-10-18T14:08:35.689Z,52.50
2022-10-18T14:11:02.073Z,49.50
2022-10-18T14:13:20.006Z,56.20
2022-10-18T14:15:30.707Z,58.20
2022-10-18T14:18:01.435Z,56.90
2022-10-18T14:20:24.749Z,60.00
2022-10-18T14:22:42.815Z,62.50
2022-10-18T14:24:55.285Z,58.60
2022-10-18T14:27:24.271Z,61.50
2022-10-18T14:29:31.004Z,59.40
2022-10-18T14:31:37.202Z,59.80
2022-10-18T14:33:57.203Z,61.00
2022-10-18T14:36:36.317Z,59.80
2022-10-18T14:38:51.378Z,60.50
2022-10-18T14:41:09.031Z,62.40
2022-10-18T14:43:20.055Z,60.70
2022-10-18T14:45:26.412Z,60.70
2022-10-18T14:47:35.027Z,58.00
2022-10-18T14:49:46.518Z,59.40
2022-10-18T14:51:58.090Z,57.40
2022-10-18T14:54:04.913Z,53.10
2022-10-18T14:56:24.136Z,54.70
2022-10-18T14:58:30.495Z,54.70
2022-10-18T15:00:40.431Z,55.70
2022-10-18T15:02:48.982Z,55.10
2022-10-18T15:05:08.631Z,55.90
2022-10-18T15:07:18.405Z,58.30
2022-10-18T15:09:25.484Z,53.10
2022-10-18T15:11:33.014Z,56.40
2022-10-18T15:14:04.226Z,53.90
2022-10-18T15:16:19.591Z,55.80
2022-10-18T15:18:27.763Z,55.50
2022-10-18T15:20:40.434Z,55.30
2022-10-18T15:22:50.031Z,56.50
2022-10-18T15:25:32.327Z,57.70
2022-10-18T15:29:46.860Z,58.20
2022-10-18T15:31:53.995Z,57.40
2022-10-18T15:34:29.325Z,56.30
2022-10-18T15:36:37.025Z,56.50
2022-10-18T15:38:46.300Z,55.80
2022-10-18T15:40:56.006Z,53.30
2022-10-18T15:43:05.402Z,52.10
2022-10-18T15:45:26.986Z,50.90
2022-10-18T15:47:33.400Z,45.60
2022-10-18T15:49:48.435Z,45.10
2022-10-18T15:52:23.650Z,42.40
2022-10-18T15:54:33.570Z,40.10
2022-10-18T15:56:47.501Z,36.50
2022-10-18T15:58:53.871Z,38.50
2022-10-18T16:01:02.984Z,39.40
2022-10-18T16:03:10.604Z,41.00
2022-10-18T16:05:22.188Z,36.30
2022-10-18T16:07:28.558Z,36.80
2022-10-18T16:09:34.679Z,34.40
2022-10-18T16:11:40.855Z,39.40
2022-10-18T16:13:47.628Z,39.70
2022-10-18T16:15:56.764Z,30.80
2022-10-18T16:18:03.203Z,32.10
2022-10-18T16:20:21.699Z,33.50
2022-10-18T16:22:27.751Z,29.80
2022-10-18T16:24:34.294Z,27.90
2022-10-18T16:26:40.374Z,28.70
2022-10-18T16:28:47.972Z,30.80
2022-10-18T16:30:55.953Z,25.60
2022-10-18T16:33:01.859Z,31.00
2022-10-18T16:35:09.413Z,26.80
2022-10-18T16:37:15.639Z,30.80
2022-10-18T16:39:23.534Z,30.00
2022-10-18T16:41:30.490Z,30.40
2022-10-18T16:43:37.127Z,30.80
2022-10-18T16:45:43.892Z,28.40
2022-10-18T16:47:49.868Z,28.10
2022-10-18T16:49:56.070Z,31.30
2022-10-18T16:52:02.206Z,31.00
2022-10-18T16:54:08.311Z,30.70
2022-10-18T16:56:31.933Z,31.80
2022-10-18T16:58:38.009Z,31.10
2022-10-18T17:00:44.166Z,32.60
2022-10-18T17:02:51.587Z,32.60
2022-10-18T17:04:58.197Z,31.50
2022-10-18T17:07:06.118Z,32.60
2022-10-18T17:09:15.753Z,32.20
2022-10-18T17:11:24.169Z,34.00
2022-10-18T17:13:30.289Z,32.80
2022-10-18T17:15:36.762Z,34.00
2022-10-18T17:17:43.011Z,34.20
2022-10-18T17:19:49.162Z,33.10
2022-10-18T17:21:58.898Z,33.40
2022-10-18T17:24:08.322Z,34.30
2022-10-18T17:26:28.749Z,35.20
2022-10-18T17:28:35.745Z,36.10
2022-10-18T17:30:43.085Z,34.10
2022-10-18T17:32:49.508Z,36.30
2022-10-18T17:34:56.062Z,36.20
2022-10-18T17:37:02.138Z,36.50
2022-10-18T17:39:08.912Z,38.90
2022-10-18T17:41:15.460Z,39.30
2022-10-18T17:43:21.620Z,38.40
2022-10-18T17:45:28.074Z,39.00
2022-10-18T17:47:34.356Z,37.10
2022-10-18T17:49:40.522Z,37.80
2022-10-18T17:51:47.467Z,37.60
2022-10-18T17:53:53.566Z,39.70
2022-10-18T17:56:02.588Z,40.00
2022-10-18T17:58:09.196Z,41.60
2022-10-18T18:00:16.642Z,40.70
2022-10-18T18:02:22.984Z,38.00
2022-10-18T18:04:29.153Z,38.30
2022-10-18T18:06:38.023Z,37.00
2022-10-18T18:08:44.363Z,40.70
2022-10-18T18:10:56.593Z,34.40
2022-10-18T18:13:03.914Z,36.90
2022-10-18T18:15:10.395Z,37.50
2022-10-18T18:17:24.801Z,39.40
2022-10-18T18:19:40.801Z,40.20
2022-10-18T18:21:47.423Z,42.20
2022-10-18T18:23:53.948Z,40.30
2022-10-18T18:26:00.164Z,42.20
2022-10-18T18:28:07.613Z,44.40
2022-10-18T18:30:14.080Z,43.60
2022-10-18T18:32:20.851Z,44.90
2022-10-18T18:34:27.605Z,48.60
2022-10-18T18:36:34.201Z,50.50
2022-10-18T18:38:43.608Z,56.70
2022-10-18T18:40:50.386Z,53.40
2022-10-18T18:43:07.182Z,58.80
2022-10-18T18:45:23.807Z,55.60
2022-10-18T18:47:30.345Z,53.70
2022-10-18T18:49:37.004Z,55.00
2022-10-18T18:51:43.950Z,56.90
2022-10-18T18:53:50.602Z,56.80
2022-10-18T18:56:01.784Z,59.10
2022-10-18T18:58:08.178Z,55.80
2022-10-18T19:00:15.119Z,61.50
2022-10-18T19:02:21.517Z,61.10
2022-10-18T19:04:27.966Z,64.40
2022-10-18T19:06:45.297Z,64.70
2022-10-18T19:08:55.236Z,63.50
2022-10-18T19:11:01.732Z,62.30
2022-10-18T19:13:08.392Z,71.10
2022-10-18T19:15:14.494Z,68.60
2022-10-18T19:17:22.768Z,71.60
2022-10-18T19:19:31.758Z,70.20
2022-10-18T19:21:43.094Z,68.90
2022-10-18T19:23:49.749Z,77.80
2022-10-18T19:25:56.098Z,75.20
2022-10-18T19:28:02.689Z,68.00
2022-10-18T19:30:13.673Z,75.90
2022-10-18T19:32:20.315Z,74.80
2022-10-18T19:34:28.700Z,69.70
2022-10-18T19:36:35.749Z,67.70
2022-10-18T19:38:42.062Z,69.70
2022-10-18T19:40:51.591Z,72.70
2022-10-18T19:43:00.196Z,74.00
2022-10-18T19:45:07.003Z,75.70
2022-10-18T19:47:15.394Z,74.70
2022-10-18T19:49:21.657Z,75.80
2022-10-18T19:51:28.644Z,77.20
2022-10-18T19:53:35.905Z,75.10
2022-10-18T19:55:42.483Z,81.90
2022-10-18T19:57:49.181Z,80.30
2022-10-18T19:59:56.679Z,66.50
2022-10-18T20:02:05.591Z,73.20
2022-10-18T20:04:13.459Z,72.70
2022-10-18T20:06:20.630Z,75.50
2022-10-18T20:08:28.833Z,74.00
2022-10-18T20:10:35.454Z,73.30
2022-10-18T20:12:41.485Z,51.70
2022-10-18T20:14:47.703Z,73.90
2022-10-18T20:16:54.524Z,75.20
2022-10-18T20:19:03.320Z,69.10
2022-10-18T20:21:10.714Z,72.30
2022-10-18T20:23:18.188Z,68.70
2022-10-18T20:25:24.795Z,68.90
2022-10-18T20:27:33.150Z,69.10
2022-10-18T20:29:39.651Z,71.40
2022-10-18T20:31:45.695Z,63.20
2022-10-18T20:34:06.629Z,67.90
2022-10-18T20:36:18.676Z,64.40
2022-10-18T20:38:24.802Z,66.50
2022-10-18T20:40:30.860Z,63.90
2022-10-18T20:42:36.997Z,62.80
2022-10-18T20:44:44.557Z,64.30
2022-10-18T20:46:51.200Z,67.60
2022-10-18T20:48:58.130Z,66.50
2022-10-18T20:51:10.306Z,66.30
2022-10-18T20:53:17.374Z,67.10
2022-10-18T20:55:24.491Z,66.20
2022-10-18T20:57:34.275Z,68.80
2022-10-18T20:59:43.553Z,66.60
2022-10-18T21:01:49.945Z,67.10
2022-10-18T21:03:58.580Z,69.80
2022-10-18T21:06:10.502Z,70.30
2022-10-18T21:08:17.216Z,69.90
2022-10-18T21:10:24.769Z,66.60
2022-10-18T21:12:31.415Z,67.10
2022-10-18T21:14:37.527Z,65.90
2022-10-18T21:16:44.815Z,66.10
2022-10-18T21:18:51.249Z,62.90
2022-10-18T21:21:08.010Z,62.00
2022-10-18T21:23:14.117Z,59.20
2022-10-18T21:25:20.494Z,77.30
2022-10-18T21:27:26.617Z,74.30
2022-10-18T21:29:32.565Z,72.10
2022-10-18T21:31:40.923Z,67.30
2022-10-18T21:33:48.580Z,62.70
2022-10-18T21:35:54.751Z,66.70
2022-10-18T21:38:01.018Z,63.90
2022-10-18T21:40:07.756Z,64.60
2022-10-18T21:42:14.887Z,63.50
2022-10-18T21:44:21.403Z,64.90
2022-10-18T21:46:28.158Z,66.80
2022-10-18T21:48:34.258Z,64.40
2022-10-18T21:50:40.753Z,66.20
2022-10-18T21:52:47.598Z,65.80
2022-10-18T21:54:54.752Z,63.90
2022-10-18T21:57:00.843Z,65.10
2022-10-18T21:59:07.283Z,65.80
2022-10-18T22:01:22.231Z,69.50
2022-10-18T22:03:28.538Z,72.50
2022-10-18T22:05:34.792Z,74.80
2022-10-18T22:07:41.167Z,82.60
2022-10-18T22:09:47.501Z,81.10
2022-10-18T22:11:55.418Z,87.40
2022-10-18T22:14:01.934Z,81.20
2022-10-18T22:16:09.588Z,85.80
2022-10-18T22:18:15.667Z,85.80
2022-10-18T22:20:22.811Z,91.00
2022-10-18T22:22:29.688Z,91.30
2022-10-18T22:26:48.360Z,99.80
2022-10-18T22:29:04.261Z,96.00
2022-10-18T22:31:23.941Z,102.60
2022-10-18T22:33:31.142Z,101.80
2022-10-18T22:35:37.281Z,107.60
2022-10-18T22:37:43.508Z,106.00
2022-10-18T22:39:49.716Z,107.10
2022-10-18T22:41:57.815Z,108.20
2022-10-18T22:44:04.430Z,105.20
2022-10-18T22:46:16.244Z,106.70
2022-10-18T22:48:22.625Z,108.90
2022-10-18T22:50:29.012Z,111.90
2022-10-18T22:52:36.341Z,108.60
2022-10-18T22:54:43.548Z,100.50
2022-10-18T22:56:50.623Z,95.80
2022-10-18T22:58:57.966Z,94.30
2022-10-18T23:01:12.098Z,94.30
2022-10-18T23:03:20.131Z,102.90
2022-10-18T23:05:27.232Z,99.80
2022-10-18T23:07:33.436Z,102.00
2022-10-18T23:11:54.435Z,106.70
2022-10-18T23:14:02.192Z,103.20
2022-10-18T23:16:08.945Z,102.30
2022-10-18T23:18:15.551Z,100.50
2022-10-18T23:21:14.325Z,104.50
2022-10-18T23:23:46.028Z,92.10
2022-10-18T23:25:55.812Z,102.40
2022-10-18T23:28:06.788Z,99.80
2022-10-18T23:30:13.907Z,103.80
2022-10-18T23:32:21.461Z,98.00
2022-10-18T23:34:30.263Z,99.90
2022-10-18T23:36:40.391Z,98.40
2022-10-18T23:38:48.289Z,101.60
2022-10-18T23:40:55.673Z,99.10
2022-10-18T23:43:02.825Z,95.60
2022-10-18T23:45:12.065Z,95.00
2022-10-18T23:47:19.974Z,93.90
2022-10-18T23:49:29.337Z,83.60
2022-10-18T23:51:36.245Z,91.20
2022-10-18T23:53:43.226Z,89.60
2022-10-18T23:56:06.876Z,91.90
2022-10-18T23:58:14.097Z,89.40
